Time;durP1;ratioP1;P1;durP2;ratioP2;P2;SDS_P1;SDS_P2;PMS_P1;PMS_P2;Temp;Humidity;BMP_temperature;BMP_pressure;BME280_temperature;BME280_humidity;BME280_pressure;Samples;Min_cycle;Max_cycle;Signal;HPM_P1;HPM_P2
2021/01/03 00:00:11;;;;;;;53.10;21.30;;;0.70;79.60;;;-1.52;81.47;95089.47;4980187;28;20034;-76
2021/01/03 00:02:37;;;;;;;61.25;23.42;;;0.70;79.60;;;-1.57;81.01;95082.16;4987321;28;20034;-76
2021/01/03 00:05:04;;;;;;;65.85;23.75;;;0.70;79.60;;;-1.51;81.15;95080.78;4953867;28;20090;-75
2021/01/03 00:07:29;;;;;;;54.72;21.85;;;0.80;79.80;;;-1.48;80.90;95083.09;4967437;28;20059;-74
2021/01/03 00:09:55;;;;;;;63.33;23.13;;;0.80;79.60;;;-1.53;81.42;95072.38;4981118;28;20129;-75
2021/01/03 00:12:21;;;;;;;54.55;21.92;;;0.80;79.60;;;-1.51;81.09;95080.78;4967289;28;20066;-75
2021/01/03 00:14:47;;;;;;;59.72;22.48;;;0.80;79.50;;;-1.46;80.97;95078.59;4949495;28;20343;-75
2021/01/03 00:17:12;;;;;;;54.58;21.10;;;0.80;79.40;;;-1.53;80.84;95072.38;4984174;28;20557;-75
2021/01/03 00:19:38;;;;;;;63.50;21.90;;;0.70;79.70;;;-1.48;81.32;95084.84;4978787;28;20501;-76
2021/01/03 00:22:04;;;;;;;53.70;21.65;;;0.70;79.90;;;-1.51;81.34;95083.38;4985634;28;20081;-75
2021/01/03 00:24:29;;;;;;;50.33;20.95;;;0.80;80.00;;;-1.46;81.12;95082.94;4985450;28;20097;-74
2021/01/03 00:26:55;;;;;;;53.80;22.90;;;0.70;79.90;;;-1.47;81.52;95087.28;4986295;28;20090;-74
2021/01/03 00:29:21;;;;;;;53.53;20.92;;;0.80;80.20;;;-1.46;81.42;95088.91;5000607;28;20101;-75
2021/01/03 00:31:48;;;;;;;55.83;22.27;;;0.80;80.10;;;-1.44;81.21;95088.78;4991414;28;20034;-75
2021/01/03 00:34:15;;;;;;;60.80;21.17;;;0.80;80.10;;;-1.45;81.38;95085.38;4984911;28;20050;-75
2021/01/03 00:36:40;;;;;;;60.92;21.63;;;0.80;80.40;;;-1.49;81.49;95084.03;4989093;28;20038;-76
2021/01/03 00:39:06;;;;;;;62.08;21.90;;;0.80;80.20;;;-1.47;81.48;95097.59;4980755;28;20030;-74
2021/01/03 00:41:32;;;;;;;61.70;22.25;;;0.60;80.50;;;-1.52;81.83;95094.63;4989102;28;20046;-74
2021/01/03 00:43:58;;;;;;;58.90;22.90;;;0.60;80.90;;;-1.58;81.48;95077.97;4988078;28;20149;-75
2021/01/03 00:46:24;;;;;;;58.80;21.63;;;0.60;80.90;;;-1.51;81.30;95087.72;4985822;28;20070;-75
2021/01/03 00:48:49;;;;;;;60.63;22.75;;;0.60;81.00;;;-1.58;81.59;95069.41;4989582;28;20058;-74
2021/01/03 00:51:15;;;;;;;62.75;22.35;;;0.60;81.20;;;-1.52;81.93;95079.16;4969294;28;20034;-75
2021/01/03 00:53:41;;;;;;;62.90;22.35;;;0.70;81.20;;;-1.58;81.95;95075.38;4988988;28;20140;-75
2021/01/03 00:56:06;;;;;;;62.30;22.25;;;0.70;81.20;;;-1.55;81.61;95076.88;4969520;28;20495;-74
2021/01/03 00:58:32;;;;;;;62.90;23.33;;;0.70;81.10;;;-1.53;81.73;95081.88;4988566;28;20454;-75
2021/01/03 01:00:58;;;;;;;62.22;23.23;;;0.70;81.00;;;-1.52;81.79;95081.75;4956142;28;20085;-75
2021/01/03 01:03:24;;;;;;;60.72;21.98;;;0.60;80.90;;;-1.50;81.90;95087.56;4956301;28;20598;-75
2021/01/03 01:05:49;;;;;;;60.00;22.13;;;0.70;81.10;;;-1.48;81.94;95085.66;4988025;28;20045;-75
2021/01/03 01:08:15;;;;;;;57.75;22.42;;;0.70;81.00;;;-1.52;82.07;95076.59;4969664;28;20050;-74
2021/01/03 01:10:41;;;;;;;56.75;21.02;;;0.80;80.90;;;-1.44;81.58;95092.16;4970600;28;20117;-75
2021/01/03 01:13:07;;;;;;;63.40;22.38;;;0.90;80.90;;;-1.48;81.91;95084.84;4966924;28;20037;-74
2021/01/03 01:15:32;;;;;;;59.75;22.40;;;0.80;80.70;;;-1.49;81.72;95083.22;4963018;28;20375;-75
2021/01/03 01:18:02;;;;;;;61.72;22.30;;;0.80;81.10;;;-1.43;81.86;95098.13;4998862;28;20054;-75
2021/01/03 01:20:28;;;;;;;64.40;22.90;;;0.80;81.10;;;-1.44;82.22;95102.47;4981099;28;20074;-75
2021/01/03 01:22:54;;;;;;;57.22;21.55;;;0.90;81.00;;;-1.40;82.45;95103.81;4990499;28;20035;-75
2021/01/03 01:25:23;;;;;;;59.15;21.60;;;0.90;80.90;;;-1.41;82.35;95107.34;4985334;28;21473;-75
2021/01/03 01:27:49;;;;;;;59.38;22.17;;;1.00;80.70;;;-1.37;82.40;95111.28;4971778;28;20125;-75
2021/01/03 01:30:15;;;;;;;59.50;20.92;;;1.00;80.50;;;-1.36;82.21;95112.09;4986956;28;20030;-75
2021/01/03 01:32:41;;;;;;;58.88;21.15;;;1.00;80.50;;;-1.40;81.90;95108.97;4986663;28;20027;-75
2021/01/03 01:35:15;;;;;;;59.55;22.65;;;1.00;80.70;;;-1.37;82.63;95103.53;4967720;28;20165;-75
2021/01/03 01:37:41;;;;;;;62.72;23.17;;;0.90;80.90;;;-1.38;81.93;95101.91;4982818;28;20035;-75
2021/01/03 01:40:08;;;;;;;61.03;23.08;;;0.90;80.90;;;-1.37;82.25;95108.69;4978654;28;20064;-77
2021/01/03 01:42:34;;;;;;;55.50;21.65;;;0.90;81.10;;;-1.35;82.25;95111.97;4971646;28;20030;-75
2021/01/03 01:45:00;;;;;;;63.53;22.55;;;0.90;81.00;;;-1.35;82.29;95100.84;4984748;28;20502;-76
2021/01/03 01:47:32;;;;;;;62.72;23.65;;;0.90;80.70;;;-1.37;82.67;95108.69;4985461;28;20065;-75
2021/01/03 01:50:00;;;;;;;57.58;22.27;;;0.90;80.90;;;-1.40;82.43;95097.84;4970729;28;20398;-75
2021/01/03 01:52:31;;;;;;;67.07;22.35;;;0.90;81.00;;;-1.38;82.52;95095.94;4972360;28;20038;-75
2021/01/03 01:54:59;;;;;;;53.38;22.23;;;1.00;80.80;;;-1.35;82.44;95111.16;4953626;28;20034;-75
2021/01/03 01:57:36;;;;;;;59.53;22.85;;;0.80;81.00;;;-1.37;82.67;95113.03;4953891;28;20035;-75
2021/01/03 02:00:20;;;;;;;64.60;22.50;;;0.80;81.20;;;-1.42;83.16;95104.91;4974071;28;20308;-75
2021/01/03 02:03:24;;;;;;;58.72;22.13;;;0.90;81.20;;;-1.41;84.08;95096.22;5002322;28;20134;-76
2021/01/03 02:05:59;;;;;;;57.88;22.20;;;0.90;81.30;;;-1.39;83.31;95110.59;4985654;28;20041;-76
2021/01/03 02:08:37;;;;;;;59.33;22.85;;;0.70;81.80;;;-1.43;82.45;95103.28;5002158;28;20033;-75
2021/01/03 02:11:06;;;;;;;61.55;22.27;;;0.70;82.10;;;-1.43;83.06;95108.44;4982630;28;20250;-76
2021/01/03 02:13:44;;;;;;;74.35;23.60;;;0.70;82.60;;;-1.46;83.63;95106.97;4990159;28;20367;-76
2021/01/03 02:16:19;;;;;;;64.28;22.83;;;0.70;82.40;;;-1.47;83.70;95113.06;4987451;28;20058;-76
2021/01/03 02:18:46;;;;;;;54.83;22.60;;;0.60;82.80;;;-1.45;82.69;95110.34;4982181;28;20045;-75
2021/01/03 02:21:38;;;;;;;69.38;23.75;;;0.70;82.70;;;-1.45;84.36;95111.16;4971474;28;20903;-75
2021/01/03 02:24:39;;;;;;;66.85;23.55;;;0.70;82.60;;;-1.46;84.83;95104.38;4988588;28;20038;-76
2021/01/03 02:27:14;;;;;;;74.18;25.48;;;0.80;82.70;;;-1.46;83.68;95101.81;4979999;28;20066;-75
2021/01/03 02:29:40;;;;;;;69.13;24.17;;;0.70;83.00;;;-1.48;82.83;95095.97;4991847;28;20080;-76
2021/01/03 02:32:06;;;;;;;66.97;24.95;;;0.70;83.20;;;-1.45;83.07;95095.69;4969704;28;20035;-75
2021/01/03 02:34:36;;;;;;;73.10;23.70;;;0.80;83.20;;;-1.50;83.61;95087.56;4983042;28;20022;-75
2021/01/03 02:37:27;;;;;;;70.45;23.85;;;0.80;83.00;;;-1.43;85.11;95088.63;4979016;28;20049;-74
2021/01/03 02:39:56;;;;;;;70.65;26.27;;;0.80;82.90;;;-1.43;83.33;95088.63;4963700;28;20061;-75
2021/01/03 02:42:26;;;;;;;65.47;24.65;;;0.80;83.00;;;-1.40;83.73;95085.78;4985740;28;20416;-75
2021/01/03 02:44:52;;;;;;;73.88;24.00;;;0.80;83.10;;;-1.38;83.09;95085.63;4979561;28;20045;-77
2021/01/03 02:47:21;;;;;;;66.57;24.15;;;0.80;83.10;;;-1.43;83.27;95080.09;4986287;28;20397;-75
2021/01/03 02:49:48;;;;;;;65.13;24.65;;;0.80;83.20;;;-1.36;83.26;95089.72;4984851;28;21119;-76
2021/01/03 02:52:18;;;;;;;62.67;23.20;;;0.90;83.10;;;-1.34;83.59;95087.81;4982927;28;20036;-76
2021/01/03 02:54:44;;;;;;;68.83;25.30;;;0.90;83.00;;;-1.36;83.61;95078.56;4953721;28;20509;-76
2021/01/03 02:57:10;;;;;;;69.45;24.67;;;1.00;82.70;;;-1.34;83.20;95080.06;4968203;28;22165;-76
2021/01/03 02:59:35;;;;;;;70.22;24.63;;;1.00;82.50;;;-1.29;83.26;95085.59;4984090;28;20085;-76
2021/01/03 03:02:01;;;;;;;65.28;23.27;;;1.10;82.60;;;-1.31;83.63;95084.94;4970101;28;20062;-75
2021/01/03 03:04:27;;;;;;;76.38;25.17;;;1.00;82.50;;;-1.26;83.19;95085.31;4979134;28;20125;-76
2021/01/03 03:06:53;;;;;;;71.50;24.52;;;1.00;82.40;;;-1.25;83.55;95084.38;4983832;28;20073;-76
2021/01/03 03:09:18;;;;;;;60.92;23.70;;;1.10;82.40;;;-1.24;83.68;95080.81;4975312;28;20133;-75
2021/01/03 03:11:46;;;;;;;62.63;25.23;;;1.10;82.30;;;-1.23;83.39;95079.88;4972336;28;20058;-75
2021/01/03 03:14:12;;;;;;;69.22;24.40;;;1.10;82.30;;;-1.21;83.46;95077.16;4969626;28;20046;-75
2021/01/03 03:16:37;;;;;;;68.93;25.35;;;1.10;82.20;;;-1.21;83.33;95066.84;4981299;28;20356;-75
2021/01/03 03:19:04;;;;;;;70.80;25.85;;;1.10;82.10;;;-1.24;83.46;95072.28;4967654;28;20066;-76
2021/01/03 03:21:29;;;;;;;64.32;24.08;;;1.10;82.30;;;-1.25;83.35;95066.31;4983090;28;21482;-75
2021/01/03 03:23:55;;;;;;;65.53;23.98;;;1.10;82.40;;;-1.23;83.46;95064.41;4985019;28;20547;-75
2021/01/03 03:26:21;;;;;;;65.65;23.63;;;1.10;82.20;;;-1.18;83.80;95070.88;4963500;28;20064;-75
2021/01/03 03:28:47;;;;;;;64.57;25.65;;;1.10;82.20;;;-1.16;83.56;95072.38;4968877;28;20129;-75
2021/01/03 03:31:12;;;;;;;65.22;24.25;;;1.20;82.00;;;-1.21;83.18;95071.19;4983912;28;20454;-75
2021/01/03 03:33:38;;;;;;;62.85;24.45;;;1.10;82.00;;;-1.21;83.30;95066.03;4981291;28;20426;-76
2021/01/03 03:36:04;;;;;;;72.50;28.85;;;1.10;82.20;;;-1.21;83.65;95077.16;4966355;28;20140;-75
2021/01/03 03:38:30;;;;;;;72.72;26.30;;;1.10;82.20;;;-1.15;83.47;95086.09;4984571;28;20458;-75
2021/01/03 03:40:56;;;;;;;77.32;26.23;;;1.10;82.00;;;-1.22;83.21;95080.69;4987290;28;20093;-74
2021/01/03 03:43:21;;;;;;;65.80;25.02;;;1.00;82.40;;;-1.16;83.51;95089.63;4950390;28;20058;-76
2021/01/03 03:45:47;;;;;;;67.70;25.80;;;1.10;82.50;;;-1.20;83.78;95076.19;4985589;28;20050;-75
2021/01/03 03:48:13;;;;;;;66.70;24.63;;;1.10;82.20;;;-1.17;83.41;95082.84;4965329;28;20175;-75
2021/01/03 03:50:39;;;;;;;69.95;25.08;;;1.00;82.60;;;-1.20;83.68;95083.94;4967439;28;20185;-75
2021/01/03 03:53:04;;;;;;;61.90;23.48;;;1.10;82.40;;;-1.21;83.54;95066.03;4966777;28;20061;-74
2021/01/03 03:55:30;;;;;;;65.90;24.65;;;1.10;82.20;;;-1.13;83.44;95081.59;4986062;28;20118;-74
2021/01/03 03:57:56;;;;;;;59.72;23.52;;;1.10;81.80;;;-1.13;83.56;95085.00;4969243;28;20133;-74
2021/01/03 04:00:23;;;;;;;65.53;23.45;;;1.10;81.80;;;-1.13;83.43;95089.34;4968539;28;20126;-75
2021/01/03 04:02:49;;;;;;;60.47;23.98;;;1.20;81.70;;;-1.14;83.30;95077.38;4987540;28;20049;-74
2021/01/03 04:05:21;;;;;;;54.78;23.33;;;1.10;81.80;;;-1.13;84.10;95079.84;4970814;28;20662;-74
2021/01/03 04:07:47;;;;;;;65.03;23.08;;;1.10;81.70;;;-1.13;83.40;95076.44;4977648;28;20065;-74
2021/01/03 04:10:13;;;;;;;55.08;23.67;;;1.10;81.60;;;-1.14;83.57;95072.22;4953462;28;20035;-74
2021/01/03 04:12:39;;;;;;;61.75;22.95;;;1.10;81.70;;;-1.16;83.58;95077.53;4990552;28;20034;-74
2021/01/03 04:15:09;;;;;;;62.03;22.48;;;1.10;81.90;;;-1.16;83.32;95080.09;4984759;28;20427;-73
2021/01/03 04:17:34;;;;;;;54.33;22.23;;;1.20;81.80;;;-1.19;83.54;95067.50;4988678;28;20046;-74
2021/01/03 04:20:00;;;;;;;53.05;22.90;;;1.20;81.60;;;-1.14;83.06;95067.06;4981462;28;20449;-73
2021/01/03 04:22:29;;;;;;;59.10;23.30;;;1.20;81.60;;;-1.20;83.60;95057.31;4989808;28;20499;-74
2021/01/03 04:24:56;;;;;;;59.28;23.20;;;1.10;81.80;;;-1.20;83.60;95059.91;4955591;28;20661;-73
2021/01/03 04:27:22;;;;;;;58.60;22.85;;;1.10;81.90;;;-1.18;83.60;95065.72;4969516;28;20431;-74
2021/01/03 04:29:48;;;;;;;61.53;23.85;;;1.10;81.80;;;-1.15;83.39;95060.28;4972596;28;20065;-73
2021/01/03 04:32:13;;;;;;;53.67;22.58;;;1.10;81.70;;;-1.18;83.60;95063.97;4989214;28;20065;-74
2021/01/03 04:34:41;;;;;;;57.50;23.48;;;1.10;81.90;;;-1.19;83.32;95046.84;4987766;28;20117;-74
2021/01/03 04:37:08;;;;;;;61.58;23.83;;;1.10;81.90;;;-1.24;83.61;95047.28;4967296;28;20039;-74
2021/01/03 04:39:33;;;;;;;53.95;23.20;;;1.10;82.00;;;-1.18;83.52;95052.81;4987471;28;20607;-73
2021/01/03 04:42:05;;;;;;;58.72;23.33;;;1.10;81.80;;;-1.19;83.47;95061.53;4990878;28;20070;-74
2021/01/03 04:44:55;;;;;;;62.55;23.63;;;1.10;81.90;;;-1.19;84.56;95071.84;4972054;28;20031;-74
2021/01/03 04:47:25;;;;;;;57.38;22.40;;;1.10;81.70;;;-1.25;83.54;95063.72;4969940;28;20042;-74
2021/01/03 04:50:19;;;;;;;58.55;22.52;;;1.10;81.40;;;-1.20;84.29;95070.22;4990818;28;20214;-74
2021/01/03 04:53:01;;;;;;;49.70;20.63;;;1.10;81.50;;;-1.19;84.15;95064.09;4979991;28;20100;-74
2021/01/03 04:55:28;;;;;;;57.05;23.65;;;1.10;81.40;;;-1.19;83.07;95069.25;5000249;28;20045;-74
2021/01/03 04:58:12;;;;;;;59.10;22.85;;;1.10;81.50;;;-1.21;84.23;95064.25;5008283;28;20059;-74
2021/01/03 05:01:17;;;;;;;59.42;23.77;;;1.10;81.60;;;-1.24;84.00;95062.78;5004550;28;20033;-74
2021/01/03 05:04:36;;;;;;;55.28;23.23;;;1.00;81.60;;;-1.25;84.44;95075.81;4997179;28;20825;-73
2021/01/03 05:07:27;;;;;;;58.13;23.08;;;0.90;81.90;;;-1.31;84.28;95077.19;4988702;28;20462;-74
2021/01/03 05:10:11;;;;;;;59.67;24.23;;;1.00;81.70;;;-1.25;83.05;95086.94;4984685;28;20030;-74
2021/01/03 05:13:17;;;;;;;61.20;23.25;;;1.10;81.60;;;-1.25;84.48;95088.72;4999536;28;20114;-73
2021/01/03 05:15:43;;;;;;;61.95;22.90;;;0.90;81.80;;;-1.29;83.13;95075.28;5002905;28;20595;-73
2021/01/03 05:18:09;;;;;;;53.97;23.90;;;1.00;81.80;;;-1.24;83.30;95078.25;4973685;28;20082;-73
2021/01/03 05:20:35;;;;;;;54.97;23.40;;;1.10;81.70;;;-1.25;83.28;95086.94;4990784;28;20044;-73
2021/01/03 05:23:27;;;;;;;58.30;23.33;;;1.00;81.60;;;-1.25;84.41;95092.09;4988860;28;20048;-73
2021/01/03 05:25:54;;;;;;;56.85;23.52;;;1.00;81.70;;;-1.24;83.50;95088.56;4979768;28;20130;-74
2021/01/03 05:28:25;;;;;;;61.63;24.05;;;1.00;81.90;;;-1.24;83.70;95082.59;4984409;28;20027;-74
2021/01/03 05:30:51;;;;;;;;;;;1.00;81.60;;;-1.24;84.69;95078.25;4990928;28;20046;-74
2021/01/03 05:33:27;;;;;;;55.72;23.05;;;0.90;81.70;;;-1.28;84.09;95076.91;4986688;28;20325;-74
2021/01/03 05:35:54;;;;;;;55.35;21.88;;;0.80;82.30;;;-1.33;83.06;95071.38;4985526;28;20034;-73
2021/01/03 05:38:41;;;;;;;57.13;23.63;;;0.90;82.30;;;-1.34;83.99;95072.34;4987300;28;20541;-74
2021/01/03 05:41:19;;;;;;;56.38;22.00;;;0.90;82.10;;;-1.30;83.93;95086.56;4984546;28;20481;-73
2021/01/03 05:43:54;;;;;;;55.17;22.85;;;1.00;82.00;;;-1.25;84.01;95091.28;4970489;28;20201;-74
2021/01/03 05:46:25;;;;;;;52.28;24.20;;;1.00;81.70;;;-1.27;83.59;95086.28;4988489;28;20027;-73
2021/01/03 05:49:04;;;;;;;58.03;23.27;;;1.00;81.70;;;-1.25;84.23;95086.94;4969514;28;20088;-74
2021/01/03 05:51:46;;;;;;;59.45;21.88;;;1.00;81.70;;;-1.29;84.00;95087.38;4983618;28;20037;-73
2021/01/03 05:54:15;;;;;;;55.15;22.48;;;1.10;81.60;;;-1.26;83.29;95085.31;4987094;28;20125;-74
2021/01/03 05:56:41;;;;;;;51.25;22.48;;;1.10;81.50;;;-1.25;83.06;95094.69;4951669;28;20043;-74
2021/01/03 05:59:07;;;;;;;53.17;23.17;;;1.10;81.50;;;-1.20;83.37;95093.44;4968355;28;20371;-73
2021/01/03 06:01:35;;;;;;;48.70;21.63;;;1.10;81.30;;;-1.19;83.32;95102.81;4970720;28;20491;-74
2021/01/03 06:04:13;;;;;;;54.60;22.15;;;1.10;81.10;;;-1.16;83.52;95097.34;4983675;28;20034;-74
2021/01/03 06:06:42;;;;;;;51.50;21.85;;;1.10;80.90;;;-1.16;83.19;95098.16;4980166;28;20038;-74
2021/01/03 06:09:08;;;;;;;56.85;22.88;;;1.10;80.70;;;-1.15;83.19;95104.16;4986273;28;20078;-74
2021/01/03 06:11:34;;;;;;;48.40;23.35;;;1.10;80.80;;;-1.20;82.89;95101.19;4954226;28;20042;-74
2021/01/03 06:13:59;;;;;;;52.70;22.83;;;1.10;80.60;;;-1.15;83.18;95111.88;4971279;28;20391;-73
2021/01/03 06:16:28;;;;;;;52.25;23.67;;;1.10;80.60;;;-1.14;83.34;95116.09;4984675;28;20121;-73
2021/01/03 06:19:24;;;;;;;54.47;22.33;;;1.10;80.60;;;-1.15;83.29;95114.47;4970809;28;20029;-73
2021/01/03 06:21:53;;;;;;;52.33;22.88;;;1.10;80.50;;;-1.15;83.22;95109.31;4985567;28;20474;-73
2021/01/03 06:24:25;;;;;;;55.75;23.52;;;1.10;80.80;;;-1.14;83.15;95106.56;4966753;28;20039;-74
2021/01/03 06:26:57;;;;;;;54.53;23.63;;;1.10;81.00;;;-1.12;83.40;95116.78;4964741;28;20372;-73
2021/01/03 06:29:48;;;;;;;56.30;23.02;;;1.10;80.80;;;-1.12;83.59;95116.78;4984085;28;20034;-73
2021/01/03 06:32:52;;;;;;;59.28;24.02;;;1.10;80.90;;;-1.10;83.61;95117.47;4959439;28;20476;-73
2021/01/03 06:35:28;;;;;;;55.85;22.75;;;1.20;80.40;;;-1.10;83.47;95114.88;4971546;28;20518;-73
2021/01/03 06:38:13;;;;;;;56.63;23.70;;;1.20;80.60;;;-1.10;83.88;95120.03;4985087;28;20050;-73
2021/01/03 06:41:26;;;;;;;55.17;22.38;;;1.10;81.10;;;-1.10;84.13;95114.88;4986550;28;20098;-74
2021/01/03 06:44:33;;;;;;;53.80;22.50;;;1.20;80.80;;;-1.07;83.78;95114.59;4962752;28;20104;-74
2021/01/03 06:47:58;;;;;;;57.25;23.58;;;1.20;80.90;;;-1.07;83.90;95112.00;4984769;28;20156;-74
2021/01/03 06:50:48;;;;;;;64.18;24.70;;;1.10;80.90;;;-1.09;83.44;95107.00;4960206;28;20035;-72
2021/01/03 06:53:27;;;;;;;58.90;23.30;;;1.20;81.40;;;-1.09;84.25;95109.56;4984282;28;20134;-74
2021/01/03 06:56:07;;;;;;;64.20;24.00;;;1.20;81.60;;;-1.09;84.29;95111.34;4979433;28;20023;-74
2021/01/03 06:59:21;;;;;;;60.65;24.80;;;1.10;81.80;;;-1.07;84.55;95119.75;4981347;28;20486;-74
2021/01/03 07:01:47;;;;;;;64.03;26.63;;;1.20;81.80;;;-1.07;83.11;95114.59;5008564;28;20533;-74
2021/01/03 07:04:35;;;;;;;78.97;34.05;;;1.20;82.00;;;-1.06;85.11;95122.19;4984173;28;20058;-74
2021/01/03 07:07:02;;;;;;;75.82;30.67;;;1.20;82.20;;;-1.10;83.81;95122.63;4981549;28;20038;-74
2021/01/03 07:09:28;;;;;;;72.05;28.13;;;1.30;82.10;;;-1.11;83.04;95123.56;4965766;28;20402;-74
2021/01/03 07:11:56;;;;;;;77.40;29.38;;;1.10;82.30;;;-1.11;83.56;95131.31;4952857;28;20430;-75
2021/01/03 07:14:21;;;;;;;71.68;27.70;;;1.20;82.70;;;-1.08;83.59;95146.50;4970557;28;20035;-74
2021/01/03 07:16:59;;;;;;;71.38;27.00;;;1.10;82.90;;;-1.11;84.41;95145.03;4979355;28;20070;-74
2021/01/03 07:19:52;;;;;;;75.03;26.95;;;1.00;82.90;;;-1.14;85.24;95147.06;4970387;28;20478;-75
2021/01/03 07:22:35;;;;;;;62.65;24.45;;;0.90;83.80;;;-1.26;85.37;95136.09;4979794;28;20525;-74
2021/01/03 07:25:00;;;;;;;72.85;25.52;;;1.00;83.70;;;-1.16;83.82;95146.38;4967160;28;20158;-74
2021/01/03 07:27:38;;;;;;;74.25;25.67;;;1.00;83.50;;;-1.16;84.68;95139.44;4985538;28;20492;-74
2021/01/03 07:30:04;;;;;;;66.68;25.45;;;1.10;83.40;;;-1.14;83.97;95139.31;4985750;28;20097;-74
2021/01/03 07:32:33;;;;;;;63.30;24.35;;;1.20;83.30;;;-1.11;84.54;95142.44;4985810;28;20038;-74
2021/01/03 07:35:01;;;;;;;61.53;24.58;;;1.20;83.20;;;-1.09;84.41;95147.47;4983848;28;20038;-74
2021/01/03 07:37:31;;;;;;;61.97;24.73;;;1.20;83.10;;;-1.12;84.46;95138.25;4986307;28;20117;-74
2021/01/03 07:40:07;;;;;;;65.97;25.02;;;1.20;83.10;;;-1.05;85.19;95143.63;4974247;28;20042;-74
2021/01/03 07:42:58;;;;;;;67.65;24.40;;;1.30;83.00;;;-1.03;85.76;95152.88;4983798;28;20109;-73
2021/01/03 07:45:32;;;;;;;66.45;24.45;;;1.30;82.90;;;-1.01;85.26;95153.53;4976295;28;20041;-72
2021/01/03 07:47:58;;;;;;;67.45;24.15;;;1.30;82.80;;;-1.05;84.35;95154.78;5004477;28;20045;-71
2021/01/03 07:50:37;;;;;;;58.63;22.70;;;1.30;82.80;;;-1.00;84.98;95160.31;5012523;28;20026;-71
2021/01/03 07:53:34;;;;;;;66.22;23.40;;;1.30;83.00;;;-0.97;85.60;95161.81;4999217;28;20030;-68
2021/01/03 07:56:21;;;;;;;62.75;23.38;;;1.40;83.00;;;-0.94;85.51;95166.69;4990659;28;20101;-70
2021/01/03 07:58:57;;;;;;;98.55;37.70;;;1.40;82.90;;;-0.93;85.30;95157.97;4987643;28;20042;-69
2021/01/03 08:01:26;;;;;;;67.82;26.50;;;1.30;83.20;;;-0.92;84.55;95159.59;4998554;28;20030;-74
2021/01/03 08:03:52;;;;;;;71.30;24.98;;;1.40;83.20;;;-0.95;84.28;95159.91;4991666;28;20040;-75
2021/01/03 08:06:18;;;;;;;66.15;25.17;;;1.40;82.80;;;-0.89;84.55;95164.50;4990862;28;20029;-74
2021/01/03 08:08:53;;;;;;;76.13;26.42;;;1.50;83.00;;;-0.93;85.56;95153.63;5012609;28;20053;-74
2021/01/03 08:11:35;;;;;;;69.22;24.75;;;1.40;82.90;;;-0.90;85.46;95144.00;4974600;28;20038;-75
2021/01/03 08:14:04;;;;;;;72.03;26.88;;;1.40;82.90;;;-0.85;84.39;95163.28;4982046;28;20031;-74
2021/01/03 08:16:30;;;;;;;69.15;24.27;;;1.50;82.90;;;-0.84;84.16;95159.72;4989684;28;20034;-74
2021/01/03 08:19:04;;;;;;;71.78;24.50;;;1.40;82.70;;;-0.85;84.81;95160.69;4979841;28;20608;-74
2021/01/03 08:21:38;;;;;;;64.07;23.02;;;1.40;82.80;;;-0.85;84.89;95165.84;5007195;28;20030;-74
2021/01/03 08:24:12;;;;;;;65.57;24.05;;;1.40;82.80;;;-0.84;84.93;95170.06;5005957;28;20046;-74
2021/01/03 08:27:00;;;;;;;65.25;23.70;;;1.40;82.90;;;-0.87;85.59;95162.59;4987310;28;20042;-74
2021/01/03 08:29:47;;;;;;;63.05;23.60;;;1.50;83.00;;;-0.87;85.28;95159.19;4988322;28;20478;-74
2021/01/03 08:32:26;;;;;;;98.55;37.60;;;1.50;82.70;;;-0.81;84.45;95168.97;4974570;28;20042;-75
2021/01/03 08:35:11;;;;;;;75.57;28.13;;;1.50;82.80;;;-0.81;85.23;95167.19;5006054;28;20052;-75
2021/01/03 08:37:44;;;;;;;65.57;24.63;;;1.60;82.60;;;-0.73;84.96;95180.19;4990569;28;20034;-75
2021/01/03 08:40:35;;;;;;;70.35;23.23;;;1.60;82.60;;;-0.72;85.39;95186.16;5005514;28;20133;-74
2021/01/03 08:43:13;;;;;;;58.95;22.50;;;1.60;82.20;;;-0.78;84.90;95174.63;4991474;28;20109;-74
2021/01/03 08:45:40;;;;;;;62.40;22.52;;;1.60;82.20;;;-0.75;84.00;95176.13;4975081;28;20042;-72
2021/01/03 08:48:09;;;;;;;61.53;22.20;;;1.50;82.10;;;-0.76;83.94;95180.47;4984265;28;20465;-75
2021/01/03 08:50:37;;;;;;;61.80;20.77;;;1.60;82.00;;;-0.77;83.56;95189.19;4970024;28;20041;-70
2021/01/03 08:53:06;;;;;;;54.97;21.75;;;1.40;82.40;;;-0.77;84.07;95199.50;4989258;28;20034;-71
2021/01/03 08:55:36;;;;;;;64.57;21.77;;;1.30;82.70;;;-0.79;84.22;95193.66;5001254;28;20063;-68
2021/01/03 08:58:05;;;;;;;56.22;22.85;;;1.50;82.40;;;-0.77;84.12;95199.50;4992793;28;20547;-68
2021/01/03 09:00:36;;;;;;;68.93;23.95;;;1.50;82.20;;;-0.74;84.46;95209.53;5008939;28;20062;-69
2021/01/03 09:03:02;;;;;;;55.53;22.98;;;1.50;82.50;;;-0.71;84.24;95213.59;4992554;28;20124;-68
2021/01/03 09:05:35;;;;;;;69.78;24.00;;;1.60;82.50;;;-0.71;84.85;95219.59;4993097;28;20472;-69
2021/01/03 09:08:01;;;;;;;69.28;24.20;;;1.50;82.40;;;-0.68;84.20;95214.16;4976547;28;20686;-69
2021/01/03 09:10:29;;;;;;;63.08;24.10;;;1.60;82.50;;;-0.65;84.22;95218.22;5007441;28;20034;-77
2021/01/03 09:13:09;;;;;;;60.67;24.05;;;1.70;82.40;;;-0.63;85.03;95216.31;5008648;28;20347;-75
2021/01/03 09:15:38;;;;;;;63.47;23.77;;;1.70;82.30;;;-0.60;84.49;95220.38;5008535;28;20041;-76
2021/01/03 09:18:30;;;;;;;66.32;23.25;;;1.70;81.90;;;-0.64;85.15;95212.91;4991430;28;20111;-76
2021/01/03 09:21:03;;;;;;;63.95;23.52;;;1.70;82.20;;;-0.61;84.90;95214.41;4992466;28;20246;-76
2021/01/03 09:23:31;;;;;;;64.32;23.88;;;1.70;82.20;;;-0.57;84.08;95230.41;4976814;28;20038;-76
2021/01/03 09:25:57;;;;;;;62.25;23.17;;;1.80;82.20;;;-0.53;84.03;95237.75;4992825;28;20048;-70
2021/01/03 09:28:30;;;;;;;61.10;24.50;;;1.80;82.20;;;-0.51;84.55;95235.00;5008265;28;20034;-69
2021/01/03 09:31:12;;;;;;;74.40;31.23;;;1.80;82.20;;;-0.48;85.15;95240.69;5008209;28;20042;-72
2021/01/03 09:33:38;;;;;;;69.22;29.33;;;1.90;82.30;;;-0.45;84.58;95249.97;5001043;28;20124;-74
2021/01/03 09:36:23;;;;;;;73.93;29.95;;;1.80;82.40;;;-0.41;85.18;95251.31;5010190;28;20351;-73
2021/01/03 09:39:33;;;;;;;68.25;28.60;;;1.90;82.10;;;-0.40;85.21;95258.91;4992720;28;20052;-73
2021/01/03 09:42:35;;;;;;;60.85;23.80;;;1.90;81.70;;;-0.37;84.90;95266.38;4988718;28;20038;-70
2021/01/03 09:45:25;;;;;;;71.30;29.02;;;2.00;81.50;;;-0.35;84.85;95261.88;5002849;28;20030;-72
2021/01/03 09:47:51;;;;;;;67.63;25.35;;;2.10;81.50;;;-0.33;84.31;95259.13;4989677;28;20038;-69
2021/01/03 09:50:30;;;;;;;57.67;22.00;;;2.00;81.60;;;-0.36;84.72;95259.44;4978173;28;20030;-70
2021/01/03 09:53:15;;;;;;;59.20;22.95;;;2.10;81.50;;;-0.28;84.70;95269.03;5008013;28;20121;-69
2021/01/03 09:55:48;;;;;;;58.13;22.00;;;2.10;81.60;;;-0.25;84.61;95261.00;4985695;28;20640;-74
2021/01/03 09:58:13;;;;;;;60.83;24.40;;;2.20;81.40;;;-0.23;84.07;95259.91;4992196;28;20129;-73
2021/01/03 10:00:55;;;;;;;64.78;25.50;;;2.20;81.30;;;-0.19;84.95;95265.63;4971780;28;20450;-71
2021/01/03 10:03:39;;;;;;;63.30;26.27;;;2.20;81.40;;;-0.20;84.64;95261.41;5004499;28;20038;-69
2021/01/03 10:06:12;;;;;;;61.65;24.15;;;2.10;81.40;;;-0.20;84.54;95257.06;5009166;28;20041;-67
2021/01/03 10:08:40;;;;;;;67.25;25.92;;;2.10;81.40;;;-0.20;84.33;95261.41;5008604;28;20065;-68
2021/01/03 10:11:06;;;;;;;68.85;24.67;;;2.20;81.50;;;-0.17;84.06;95261.13;5006711;28;20409;-67
2021/01/03 10:13:32;;;;;;;66.65;25.35;;;2.20;81.10;;;-0.13;84.17;95265.03;5006944;28;20116;-68
2021/01/03 10:16:18;;;;;;;64.97;26.02;;;2.20;81.10;;;-0.17;84.69;95264.50;4990799;28;20088;-66
2021/01/03 10:18:44;;;;;;;70.45;27.98;;;2.20;81.30;;;-0.13;84.23;95265.03;4972021;28;20045;-67
2021/01/03 10:21:36;;;;;;;73.38;28.13;;;2.20;81.40;;;-0.10;85.04;95264.75;5001423;28;20066;-67
2021/01/03 10:24:25;;;;;;;;;;;2.20;81.50;;;-0.09;84.18;95256.84;4991461;28;20046;-68
2021/01/03 10:27:30;;;;;;;62.78;23.90;;;2.20;81.00;;;-0.09;84.61;95259.44;5006898;28;19917;-65
2021/01/03 10:29:55;;;;;;;80.15;31.17;;;2.20;81.00;;;-0.04;83.94;95248.66;4993276;28;20122;-66
2021/01/03 10:32:21;;;;;;;87.07;36.22;;;2.40;82.10;;;0.01;84.00;95256.00;5007250;28;20030;-66
2021/01/03 10:34:47;;;;;;;69.38;26.92;;;2.50;81.80;;;-0.02;83.66;95237.19;4984531;28;20494;-67
2021/01/03 10:37:13;;;;;;;61.42;24.95;;;2.40;81.00;;;0.05;84.03;95252.16;5005079;28;20042;-64